• Join FlightAware (Why Join?)
  • Login
  • US Flag 
05:42AM EDT


 

Airport Tracker/Info


-or-


 

Live Flight TrackerFlight Track Log ✈ EJA951 ✈ 16-Jul-2013 ✈ KJAX - KGPT

Flight Track Log - Related Links

Times and Time Zones

All times are in EDT time to prevent confusion due to time zone crossing. See the EJA951 flight status page for this flight to view local times or setup timezone preferences in your user account.

Time Position Orientation Groundspeed Altitude Reporting Facility
EDT Latitude Longitude Course Direction KTS MPH feet Rate Location/Type
11:11AM 30.4758 -81.6825 38° Northeast 170 196 900  Level Jacksonville Center
11:13AM 30.5192 -81.6433 38° Northeast 206 237 6,500 3,780 Climbing Jacksonville Center
11:14AM 30.5575 -81.6961 310° West 312 359 9,400 2,940 Climbing Jacksonville Center
11:15AM 30.5314 -81.8361 258° West 356 410 13,100 2,460 Climbing Jacksonville Center
11:16AM 30.5158 -81.9714 262° West 385 443 15,200 1,500 Climbing Jacksonville Center
11:17AM 30.5125 -82.1089 268° West 415 478 16,200 780 Climbing Jacksonville Center
11:18AM 30.5114 -82.2561 270° West 438 504 16,800 720 Climbing Jacksonville Center
11:19AM 30.5058 -82.4081 268° West 459 528 17,700 1,020 Climbing Jacksonville Center
11:20AM 30.5019 -82.5525 268° West 467 537 18,900 1,380 Climbing Jacksonville Center
11:21AM 30.5086 -82.6900 273° West 449 517 20,500 1,500 Climbing Jacksonville Center
11:22AM 30.5150 -82.8322 273° West 444 511 22,000 1,440 Climbing Jacksonville Center
11:23AM 30.5192 -82.9769 272° West 444 511 23,400 1,440 Climbing Jacksonville Center
11:24AM 30.5253 -83.1242 273° West 449 517 24,900 1,200 Climbing Jacksonville Center
11:25AM 30.5289 -83.2736 272° West 461 531 25,900 960 Climbing Jacksonville Center
11:26AM 30.5325 -83.4303 272° West 475 547 26,900 1,260 Climbing Jacksonville Center
11:27AM 30.5361 -83.5847 272° West 480 552 28,500 1,380 Climbing Jacksonville Center
11:28AM 30.5414 -83.7392 272° West 480 552 29,700 1,200 Climbing Jacksonville Center
11:29AM 30.5464 -83.9008 272° West 480 552 30,900 1,620 Climbing Jacksonville Center
11:30AM 30.5492 -84.0625 271° West 490 564 33,000 2,160 Climbing Jacksonville Center
11:31AM 30.5522 -84.2025 271° West 496 571 35,300 2,400 Climbing Jacksonville Center
11:32AM 30.5547 -84.3519 271° West 490 564 37,900 1,320 Climbing Jacksonville Center
11:33AM 30.6028 -84.5192 289° West 483 556 38,000  Climbing Jacksonville Center
11:34AM 30.6486 -84.6722 289° West 497 572 38,000  Level Jacksonville Center
11:35AM 30.6986 -84.8325 290° West 510 587 38,000  Level Jacksonville Center
11:36AM 30.7483 -84.9906 290° West 515 593 38,000  Level Jacksonville Center
11:37AM 30.7892 -85.1536 286° West 526 605 38,000  Level Jacksonville Center
11:38AM 30.7986 -85.3231 274° West 520 598 38,000  Level Jacksonville Center
11:39AM 30.7933 -85.4922 268° West 520 598 38,000  Level Jacksonville Center
11:40AM 30.7772 -85.6586 264° West 520 598 38,000  Level Jacksonville Center
11:41AM 30.7608 -85.8272 264° West 526 605 38,000  Level Jacksonville Center
11:42AM 30.7444 -85.9911 263° West 526 605 38,000  Level Jacksonville Center
11:43AM 30.7297 -86.1600 264° West 526 605 38,000  Level Jacksonville Center
11:44AM 30.7108 -86.3236 262° West 521 600 38,000  Level Jacksonville Center
11:45AM 30.6939 -86.4894 263° West 516 594 38,000  Level Jacksonville Center
11:46AM 30.6786 -86.6531 264° West 516 594 38,000  Level Jacksonville Center
11:47AM 30.6631 -86.8192 264° West 521 600 38,000  Level Jacksonville Center
11:48AM 30.6456 -86.9803 263° West 521 600 38,000 -300 Level Jacksonville Center
11:49AM 30.6278 -87.1436 263° West 521 600 37,400 -1,860 Descending Jacksonville Center
11:51AM 30.5997 -87.4003 263° West 508 585 33,100 -2,640 Descending Houston Center
11:52AM 30.5825 -87.5622 263° West 508 585 30,400 -2,640 Descending Houston Center
11:53AM 30.5633 -87.7300 262° West 520 598 27,600 -2,940 Descending Houston Center
11:54AM 30.5411 -87.9278 263° West 513 590 24,300 -1,800 Descending Houston Center
11:55AM 30.5219 -88.0861 262° West 496 571 24,000 -1,260 Descending Houston Center
11:56AM 30.5042 -88.2419 262° West 487 560 21,700 -2,820 Descending Houston Center
11:57AM 30.4872 -88.3869 262° West 457 526 18,200 -3,300 Descending Houston Center
11:58AM 30.4717 -88.5242 263° West 433 498 14,900 -3,300 Descending Houston Center
11:59AM 30.4583 -88.6531 263° West 408 470 11,400 -2,160 Descending Houston Center
12:00PM 30.4697 -88.7675 277° West 362 417 10,400 -1,740 Descending Houston Center
12:01PM 30.4833 -88.8853 278° West 317 365 7,800 -2,400 Descending Houston Center
12:02PM 30.4911 -88.9656 276° West 290 334 5,500 -2,340 Descending Houston Center
12:03PM 30.4992 -89.0556 276° West 283 326 3,000 -1,860 Descending Houston Center
12:04PM 30.4806 -89.1328 254° West 239 275 1,700 -1,020 Descending Houston Center
12:05PM 30.4381 -89.1092 154° Southeast 188 216 1,000 -720 Descending Houston Center
12:07PM 30.4000 -89.0667 147° Southeast  Level FlightAware Approximate
12:14PM 30.4073 -89.0701 147° Southeast  Level Estimated
12:15PM 30.4073 -89.0701 147° Southeast  Level Estimated